Time;durP1;ratioP1;P1;durP2;ratioP2;P2;SDS_P1;SDS_P2;PMS_P1;PMS_P2;Temp;Humidity;BMP_temperature;BMP_pressure;BME280_temperature;BME280_humidity;BME280_pressure;Samples;Min_cycle;Max_cycle;Signal;HPM_P1;HPM_P2
2021/10/27 00:01:47;;;;;;;9.57;6.60;;;10.30;99.90;;;;;;5030012;28;20029;-79
2021/10/27 00:04:12;;;;;;;10.65;6.28;;;10.30;99.90;;;;;;5030193;28;20056;-79
2021/10/27 00:06:38;;;;;;;9.25;6.15;;;10.30;99.90;;;;;;5030410;28;20029;-79
2021/10/27 00:09:04;;;;;;;8.73;6.00;;;10.30;99.90;;;;;;5029682;28;20029;-79
2021/10/27 00:11:31;;;;;;;7.30;5.75;;;10.30;99.90;;;;;;5030192;28;20413;-79
2021/10/27 00:13:57;;;;;;;8.05;6.05;;;10.30;99.90;;;;;;5030339;28;20544;-79
2021/10/27 00:16:23;;;;;;;9.68;6.20;;;10.20;99.90;;;;;;5045367;28;20033;-79
2021/10/27 00:18:48;;;;;;;8.52;6.18;;;10.20;99.90;;;;;;5029661;28;20061;-79
2021/10/27 00:21:14;;;;;;;8.43;6.53;;;10.20;99.90;;;;;;5029672;28;20067;-79
2021/10/27 00:23:39;;;;;;;8.75;5.88;;;10.20;99.90;;;;;;5030097;28;20033;-79
2021/10/27 00:26:05;;;;;;;10.68;6.50;;;10.20;99.90;;;;;;5030085;28;20042;-79
2021/10/27 00:28:31;;;;;;;10.13;6.05;;;10.10;99.90;;;;;;5029270;28;20351;-79
2021/10/27 00:30:56;;;;;;;7.35;5.80;;;10.10;99.90;;;;;;5029469;28;20033;-79
2021/10/27 00:33:22;;;;;;;11.13;6.13;;;10.10;99.90;;;;;;5030194;28;20037;-79
2021/10/27 00:35:48;;;;;;;10.88;7.05;;;10.10;99.90;;;;;;5028352;28;20033;-79
2021/10/27 00:38:14;;;;;;;9.70;6.38;;;10.10;99.90;;;;;;5029342;28;20033;-80
2021/10/27 00:40:39;;;;;;;8.43;5.75;;;10.10;99.90;;;;;;5034996;28;20634;-79
2021/10/27 00:43:05;;;;;;;10.25;6.97;;;10.10;99.90;;;;;;5050167;28;20108;-79
2021/10/27 00:45:31;;;;;;;11.05;6.60;;;10.10;99.90;;;;;;5049066;28;20025;-79
2021/10/27 00:47:56;;;;;;;9.10;6.03;;;10.10;99.90;;;;;;5027777;28;20442;-79
2021/10/27 00:50:22;;;;;;;8.65;6.95;;;10.00;99.90;;;;;;5028809;28;20057;-79
2021/10/27 00:52:47;;;;;;;8.43;5.72;;;10.00;99.90;;;;;;5029309;28;20402;-79
2021/10/27 00:55:13;;;;;;;8.05;5.70;;;10.00;99.90;;;;;;5029502;28;20057;-79
2021/10/27 00:57:39;;;;;;;11.98;6.65;;;10.00;99.90;;;;;;5029005;28;20045;-79
2021/10/27 01:00:07;;;;;;;9.07;6.88;;;10.00;99.90;;;;;;5027904;28;20076;-79
2021/10/27 01:02:33;;;;;;;9.95;6.57;;;10.00;99.90;;;;;;5029176;28;20065;-79
2021/10/27 01:04:59;;;;;;;12.20;7.50;;;10.00;99.90;;;;;;5029548;28;20065;-79
2021/10/27 01:07:24;;;;;;;12.48;6.88;;;10.00;99.90;;;;;;5029618;28;20417;-79
2021/10/27 01:09:50;;;;;;;11.57;6.95;;;10.00;99.90;;;;;;5028916;28;20516;-78
2021/10/27 01:12:16;;;;;;;11.00;6.78;;;9.90;99.90;;;;;;5029450;28;20059;-78
2021/10/27 01:14:44;;;;;;;9.27;6.57;;;10.00;99.90;;;;;;5029090;28;20029;-79
2021/10/27 01:17:12;;;;;;;10.48;7.10;;;10.00;99.90;;;;;;5027977;28;20037;-78
2021/10/27 01:19:53;;;;;;;9.98;6.65;;;9.90;99.90;;;;;;5028991;28;20053;-78
2021/10/27 01:22:23;;;;;;;9.95;6.63;;;9.90;99.90;;;;;;5028993;28;20029;-78
2021/10/27 01:24:48;;;;;;;9.63;7.35;;;10.00;99.90;;;;;;5029406;28;20021;-79
2021/10/27 01:27:14;;;;;;;8.40;7.05;;;9.90;99.90;;;;;;5029233;28;20029;-78
2021/10/27 01:29:39;;;;;;;8.65;6.78;;;9.90;99.90;;;;;;5029154;28;20041;-78
2021/10/27 01:32:06;;;;;;;8.70;6.50;;;9.90;99.90;;;;;;5028557;28;20076;-79
2021/10/27 01:34:32;;;;;;;10.52;6.57;;;9.80;99.90;;;;;;5028843;28;20022;-78
2021/10/27 01:36:58;;;;;;;8.60;6.47;;;9.90;99.90;;;;;;5029009;28;20037;-78
2021/10/27 01:39:24;;;;;;;11.70;7.25;;;9.90;99.90;;;;;;5028795;28;20033;-78
2021/10/27 01:41:50;;;;;;;9.23;6.82;;;9.80;99.90;;;;;;5029041;28;20029;-78
2021/10/27 01:44:16;;;;;;;11.02;5.85;;;9.90;99.90;;;;;;5029170;28;20038;-79
2021/10/27 01:46:42;;;;;;;8.65;6.13;;;9.80;99.90;;;;;;5044544;28;20111;-78
2021/10/27 01:49:09;;;;;;;11.38;6.22;;;9.80;99.90;;;;;;5029519;28;20510;-79
2021/10/27 01:51:36;;;;;;;9.27;6.45;;;9.80;99.90;;;;;;5032467;28;20605;-78
2021/10/27 01:54:01;;;;;;;12.65;7.22;;;9.80;99.90;;;;;;5031607;28;20037;-78
2021/10/27 01:56:27;;;;;;;8.43;6.35;;;9.80;99.90;;;;;;5032536;28;20033;-78
2021/10/27 01:58:56;;;;;;;10.07;6.55;;;9.80;99.90;;;;;;5031097;28;20029;-78
2021/10/27 02:01:23;;;;;;;9.95;6.93;;;9.80;99.90;;;;;;5032273;28;20060;-78
2021/10/27 02:03:48;;;;;;;9.65;7.03;;;9.80;99.90;;;;;;5033140;28;20031;-78
2021/10/27 02:06:14;;;;;;;11.88;7.28;;;9.80;99.90;;;;;;5032092;28;20385;-79
2021/10/27 02:08:39;;;;;;;14.45;6.97;;;9.70;99.90;;;;;;5032052;28;20447;-78
2021/10/27 02:11:05;;;;;;;9.75;6.60;;;9.80;99.90;;;;;;5032229;28;20033;-78
2021/10/27 02:13:31;;;;;;;12.18;6.60;;;9.80;99.90;;;;;;5048084;28;20116;-78
2021/10/27 02:15:57;;;;;;;10.60;7.20;;;9.80;99.90;;;;;;5032182;28;20037;-78
2021/10/27 02:18:23;;;;;;;8.75;6.80;;;9.80;99.90;;;;;;5031866;28;20075;-78
2021/10/27 02:20:49;;;;;;;10.55;6.82;;;9.80;99.90;;;;;;5031951;28;20034;-78
2021/10/27 02:23:15;;;;;;;10.85;7.35;;;9.80;99.90;;;;;;5032533;28;20029;-78
2021/10/27 02:25:42;;;;;;;12.90;7.07;;;9.80;99.90;;;;;;5032065;28;20026;-79
2021/10/27 02:28:07;;;;;;;9.63;6.45;;;9.80;99.90;;;;;;5031260;28;20108;-78
2021/10/27 02:30:34;;;;;;;11.98;6.90;;;9.80;99.90;;;;;;5031030;28;20700;-78
2021/10/27 02:33:02;;;;;;;7.63;6.25;;;9.80;99.90;;;;;;5034200;28;20029;-78
2021/10/27 02:35:27;;;;;;;11.10;6.85;;;9.80;99.90;;;;;;5031806;28;20029;-78
2021/10/27 02:37:53;;;;;;;10.35;6.75;;;9.80;99.90;;;;;;5031719;28;20079;-78
2021/10/27 02:40:18;;;;;;;11.70;6.95;;;9.80;99.90;;;;;;5031998;28;20103;-78
2021/10/27 02:42:44;;;;;;;8.52;5.63;;;9.80;99.90;;;;;;5031602;28;20026;-79
2021/10/27 02:45:12;;;;;;;8.38;6.18;;;9.80;99.90;;;;;;5031980;28;20108;-79
2021/10/27 02:47:38;;;;;;;9.10;5.95;;;9.80;99.90;;;;;;5031531;28;20497;-79
2021/10/27 02:50:05;;;;;;;9.10;6.28;;;9.80;99.90;;;;;;5031576;28;20033;-79
2021/10/27 02:52:31;;;;;;;11.23;6.57;;;9.80;99.90;;;;;;5031232;28;20100;-79
2021/10/27 02:54:57;;;;;;;12.40;7.07;;;9.90;99.90;;;;;;5031955;28;20116;-79
2021/10/27 02:57:24;;;;;;;9.38;6.35;;;9.90;99.90;;;;;;5031306;28;20080;-78
2021/10/27 02:59:49;;;;;;;10.05;6.38;;;9.90;99.90;;;;;;5030769;28;20037;-79
2021/10/27 03:02:15;;;;;;;11.70;7.10;;;9.90;99.90;;;;;;5030394;28;20453;-79
2021/10/27 03:04:40;;;;;;;10.43;6.63;;;9.90;99.90;;;;;;5031688;28;20159;-79
2021/10/27 03:07:06;;;;;;;8.10;6.68;;;9.90;99.90;;;;;;5031338;28;20037;-78
2021/10/27 03:09:31;;;;;;;13.73;7.40;;;9.90;99.90;;;;;;5031074;28;20029;-79
2021/10/27 03:11:57;;;;;;;13.05;7.53;;;10.00;99.90;;;;;;5031490;28;20033;-80
2021/10/27 03:14:22;;;;;;;11.52;7.22;;;10.00;99.90;;;;;;5029934;28;20784;-79
2021/10/27 03:16:48;;;;;;;10.13;6.88;;;10.10;99.90;;;;;;5031589;28;20037;-79
2021/10/27 03:19:13;;;;;;;10.90;7.05;;;10.00;99.90;;;;;;5030697;28;20104;-79
2021/10/27 03:21:39;;;;;;;10.75;7.53;;;10.10;99.90;;;;;;5031050;28;20095;-79
2021/10/27 03:24:06;;;;;;;13.85;7.18;;;10.10;99.90;;;;;;5031346;28;20056;-79
2021/10/27 03:26:32;;;;;;;10.00;6.75;;;10.10;99.90;;;;;;5030986;28;20037;-79
2021/10/27 03:28:58;;;;;;;12.27;7.35;;;10.20;99.90;;;;;;5030480;28;20445;-79
2021/10/27 03:31:24;;;;;;;10.10;6.60;;;10.20;99.90;;;;;;5045907;28;20025;-80
2021/10/27 03:33:50;;;;;;;13.32;7.18;;;10.20;99.90;;;;;;5031570;28;20129;-79
2021/10/27 03:36:15;;;;;;;7.57;6.18;;;10.20;99.90;;;;;;5030320;28;20525;-79
2021/10/27 03:38:41;;;;;;;11.90;7.75;;;10.20;99.90;;;;;;5030376;28;20486;-79
2021/10/27 03:41:07;;;;;;;11.30;6.80;;;10.20;99.90;;;;;;5045819;28;20044;-79
2021/10/27 03:43:32;;;;;;;10.23;6.53;;;10.20;99.90;;;;;;5030930;28;20639;-79
2021/10/27 03:45:58;;;;;;;11.73;7.00;;;10.20;99.90;;;;;;5031026;28;20489;-79
2021/10/27 03:48:24;;;;;;;9.93;7.05;;;10.20;99.90;;;;;;5029982;28;20029;-79
2021/10/27 03:50:50;;;;;;;13.10;7.28;;;10.20;99.90;;;;;;5030653;28;20052;-81
2021/10/27 03:53:16;;;;;;;9.75;6.97;;;10.20;99.90;;;;;;5030095;28;20029;-80
2021/10/27 03:55:41;;;;;;;11.80;8.35;;;10.20;99.90;;;;;;5030646;28;20025;-79
2021/10/27 03:58:07;;;;;;;9.52;6.88;;;10.20;99.90;;;;;;5029426;28;20483;-79
2021/10/27 04:00:32;;;;;;;12.00;7.18;;;10.20;99.90;;;;;;5029415;28;20083;-79
2021/10/27 04:02:58;;;;;;;10.85;6.45;;;10.20;99.90;;;;;;5030117;28;20033;-80
2021/10/27 04:05:23;;;;;;;11.75;7.70;;;10.20;99.90;;;;;;5029927;28;20063;-79
2021/10/27 04:07:49;;;;;;;11.80;7.05;;;10.20;99.90;;;;;;5030079;28;20033;-79
2021/10/27 04:10:14;;;;;;;7.97;6.57;;;10.20;99.90;;;;;;5030292;28;20495;-79
2021/10/27 04:12:41;;;;;;;8.75;7.20;;;10.20;99.90;;;;;;5029729;28;20029;-80
2021/10/27 04:15:09;;;;;;;11.43;6.63;;;10.20;99.90;;;;;;5030004;28;20363;-79
2021/10/27 04:17:36;;;;;;;8.38;6.70;;;10.20;99.90;;;;;;5029629;28;20037;-79
2021/10/27 04:20:06;;;;;;;10.10;7.47;;;10.20;99.90;;;;;;5030195;28;20026;-80
2021/10/27 04:22:32;;;;;;;10.02;7.28;;;10.20;99.90;;;;;;5029767;28;20033;-79
2021/10/27 04:24:58;;;;;;;10.40;6.93;;;10.20;99.90;;;;;;5030466;28;20033;-79
2021/10/27 04:27:24;;;;;;;11.38;7.72;;;10.20;99.90;;;;;;5029567;28;20119;-79
2021/10/27 04:29:50;;;;;;;11.40;7.28;;;10.20;99.90;;;;;;5029701;28;20060;-79
2021/10/27 04:32:15;;;;;;;11.02;7.65;;;10.20;99.90;;;;;;5029257;28;20604;-80
2021/10/27 04:34:41;;;;;;;11.27;7.50;;;10.20;99.90;;;;;;5030308;28;20025;-80
2021/10/27 04:37:08;;;;;;;10.63;6.63;;;10.20;99.90;;;;;;5032085;28;20046;-79
2021/10/27 04:39:34;;;;;;;12.80;7.68;;;10.20;99.90;;;;;;5049255;28;20282;-80
2021/10/27 04:42:00;;;;;;;10.88;7.28;;;10.20;99.90;;;;;;5049537;28;20029;-80
2021/10/27 04:44:25;;;;;;;12.40;7.40;;;10.20;99.90;;;;;;5049518;28;20031;-79
2021/10/27 04:46:51;;;;;;;12.00;7.32;;;10.20;99.90;;;;;;5049802;28;20033;-80
2021/10/27 04:49:16;;;;;;;8.32;6.35;;;10.20;99.90;;;;;;5048546;28;20037;-80
2021/10/27 04:51:42;;;;;;;10.45;7.30;;;10.30;99.90;;;;;;5049547;28;20042;-79
2021/10/27 04:54:08;;;;;;;9.50;6.57;;;10.30;99.90;;;;;;5049540;28;20040;-80
2021/10/27 04:56:33;;;;;;;10.68;7.43;;;10.30;99.90;;;;;;5048143;28;20040;-79
2021/10/27 04:58:59;;;;;;;13.25;7.43;;;10.30;99.90;;;;;;5041482;28;20033;-80
2021/10/27 05:01:25;;;;;;;10.07;7.50;;;10.30;99.90;;;;;;5028760;28;20022;-79
2021/10/27 05:03:50;;;;;;;13.68;7.75;;;10.30;99.90;;;;;;5028595;28;20083;-80
2021/10/27 05:06:16;;;;;;;12.98;7.53;;;10.30;99.90;;;;;;5029031;28;20069;-80
2021/10/27 05:08:45;;;;;;;9.93;7.45;;;10.40;99.90;;;;;;5029001;28;20484;-79
2021/10/27 05:11:11;;;;;;;9.52;7.22;;;10.40;99.90;;;;;;5027871;28;20535;-79
2021/10/27 05:13:36;;;;;;;10.57;6.90;;;10.50;99.90;;;;;;5029493;28;20109;-80
2021/10/27 05:16:02;;;;;;;13.57;7.55;;;10.50;99.90;;;;;;5029730;28;20038;-80
2021/10/27 05:18:27;;;;;;;8.70;6.35;;;10.50;99.90;;;;;;5028697;28;20430;-80
2021/10/27 05:20:53;;;;;;;11.38;7.65;;;10.50;99.90;;;;;;5029427;28;20030;-80
2021/10/27 05:23:19;;;;;;;9.88;7.47;;;10.50;99.90;;;;;;5029016;28;20634;-80
2021/10/27 05:25:44;;;;;;;10.68;7.30;;;10.50;99.90;;;;;;5033604;28;20037;-80
2021/10/27 05:28:11;;;;;;;8.77;6.85;;;10.60;99.90;;;;;;5032321;28;20030;-80
2021/10/27 05:30:36;;;;;;;9.50;7.35;;;10.60;99.90;;;;;;5033448;28;20033;-80
2021/10/27 05:33:02;;;;;;;14.25;7.28;;;10.70;99.90;;;;;;5032993;28;20544;-80
2021/10/27 05:35:29;;;;;;;9.07;6.30;;;10.70;99.90;;;;;;5032667;28;20033;-79
2021/10/27 05:37:56;;;;;;;9.75;6.20;;;10.70;99.90;;;;;;5032533;28;20095;-80
2021/10/27 05:40:23;;;;;;;10.43;6.38;;;10.80;99.90;;;;;;5032275;28;20124;-80
2021/10/27 05:42:49;;;;;;;16.27;6.95;;;10.80;99.90;;;;;;5032828;28;20025;-80
2021/10/27 05:45:15;;;;;;;13.40;7.20;;;10.80;99.90;;;;;;5032987;28;20367;-81
2021/10/27 05:47:50;;;;;;;8.95;5.82;;;10.80;99.90;;;;;;5032373;28;20030;-80
2021/10/27 05:55:31;;;;;;;8.25;6.10;;;10.90;99.90;;;;;;5032878;28;20129;-80
2021/10/27 05:57:56;;;;;;;9.55;6.00;;;10.90;99.90;;;;;;5031320;28;20026;-80
2021/10/27 06:00:22;;;;;;;10.90;7.03;;;10.90;99.90;;;;;;5032639;28;20104;-80
2021/10/27 06:02:47;;;;;;;8.05;6.20;;;10.90;99.90;;;;;;5030700;28;20029;-80
2021/10/27 06:05:13;;;;;;;10.88;5.93;;;10.90;99.90;;;;;;5032633;28;20032;-81
2021/10/27 06:07:38;;;;;;;10.90;5.50;;;10.90;99.90;;;;;;5032183;28;20037;-81
2021/10/27 06:10:05;;;;;;;8.48;5.85;;;11.00;99.90;;;;;;5032309;28;20112;-80
2021/10/27 06:12:31;;;;;;;8.82;6.30;;;11.00;99.90;;;;;;5030791;28;20875;-81
2021/10/27 06:14:56;;;;;;;7.57;6.05;;;11.00;99.90;;;;;;5031929;28;20109;-79
2021/10/27 06:17:22;;;;;;;12.00;6.60;;;11.10;99.90;;;;;;5032137;28;20033;-80
2021/10/27 06:19:50;;;;;;;7.72;5.78;;;11.10;99.90;;;;;;5031361;28;20037;-81
2021/10/27 06:22:16;;;;;;;9.90;5.38;;;11.10;99.90;;;;;;5032064;28;20042;-80
2021/10/27 06:24:42;;;;;;;8.57;5.88;;;11.10;99.90;;;;;;5032055;28;20108;-81
2021/10/27 06:27:08;;;;;;;7.72;5.35;;;11.10;99.90;;;;;;5032222;28;20242;-80
2021/10/27 06:29:40;;;;;;;8.25;5.57;;;11.10;99.90;;;;;;5031125;28;20513;-80
2021/10/27 06:32:19;;;;;;;7.05;4.80;;;11.20;99.90;;;;;;5031616;28;20112;-80
2021/10/27 06:34:51;;;;;;;6.78;4.72;;;11.20;99.90;;;;;;5032269;28;20036;-80
2021/10/27 06:48:14;;;;;;;11.27;6.22;;;11.40;99.70;;;;;;5051333;28;20035;-80
2021/10/27 06:50:40;;;;;;;12.00;5.43;;;11.40;99.60;;;;;;5051550;28;20111;-81
2021/10/27 06:53:06;;;;;;;6.95;5.32;;;11.40;99.50;;;;;;5052121;28;20028;-80
2021/10/27 06:55:36;;;;;;;5.03;4.30;;;11.50;99.50;;;;;;5051405;28;20560;-80
2021/10/27 06:58:01;;;;;;;7.20;5.07;;;11.50;99.40;;;;;;5050978;28;20025;-81
2021/10/27 07:00:39;;;;;;;9.15;5.25;;;11.50;99.40;;;;;;5051026;28;20025;-80
2021/10/27 07:03:17;;;;;;;7.00;4.75;;;11.60;99.30;;;;;;5052159;28;20025;-80
2021/10/27 07:14:59;;;;;;;8.32;5.13;;;11.60;99.00;;;;;;5031036;28;20461;-80
2021/10/27 07:16:37;;;;;;;9.80;4.35;;;11.70;98.90;;;;;;5030866;28;20037;-80
2021/10/27 07:19:03;;;;;;;6.72;4.78;;;11.70;99.00;;;;;;5029446;28;20038;-80
2021/10/27 07:21:28;;;;;;;9.45;4.03;;;11.70;98.90;;;;;;5030719;28;20095;-80
2021/10/27 07:23:54;;;;;;;5.80;4.43;;;11.70;98.80;;;;;;5031190;28;20413;-80
2021/10/27 07:26:20;;;;;;;4.78;4.07;;;11.70;98.80;;;;;;5031106;28;20060;-80
2021/10/27 07:28:48;;;;;;;8.45;4.68;;;11.70;98.70;;;;;;5030527;28;20022;-80
2021/10/27 07:31:16;;;;;;;7.95;4.38;;;11.80;98.80;;;;;;5030741;28;20482;-80
2021/10/27 07:33:44;;;;;;;7.18;4.70;;;11.90;98.90;;;;;;5031088;28;20556;-80
2021/10/27 07:36:28;;;;;;;5.43;4.00;;;11.90;98.80;;;;;;5031005;28;20371;-81
2021/10/27 07:41:37;;;;;;;5.72;4.25;;;12.00;98.60;;;;;;5030917;28;20497;-80
2021/10/27 07:44:13;;;;;;;11.75;5.05;;;12.00;98.50;;;;;;5030621;28;20025;-81
2021/10/27 07:46:41;;;;;;;4.57;3.78;;;12.10;98.40;;;;;;5030155;28;20171;-81
2021/10/27 07:49:06;;;;;;;6.35;4.13;;;12.20;98.80;;;;;;5028472;28;20087;-80
2021/10/27 07:51:32;;;;;;;5.78;4.20;;;12.20;98.50;;;;;;5030359;28;20025;-80
2021/10/27 07:53:58;;;;;;;7.63;4.28;;;12.20;98.40;;;;;;5030777;28;20049;-80
2021/10/27 07:56:23;;;;;;;6.35;3.65;;;12.30;98.30;;;;;;5029853;28;20117;-80
2021/10/27 07:58:50;;;;;;;5.55;3.95;;;12.30;98.30;;;;;;5028755;28;20029;-80
2021/10/27 08:01:16;;;;;;;5.47;3.70;;;12.30;98.10;;;;;;5029806;28;20381;-80
2021/10/27 08:03:42;;;;;;;6.43;3.85;;;12.30;98.10;;;;;;5030705;28;20112;-80
2021/10/27 08:06:10;;;;;;;6.15;3.45;;;12.30;98.30;;;;;;5030247;28;20112;-80
2021/10/27 08:08:35;;;;;;;7.22;3.70;;;12.40;98.30;;;;;;5029043;28;20026;-80
2021/10/27 08:11:01;;;;;;;7.35;3.30;;;12.30;97.90;;;;;;5028927;28;20433;-80
2021/10/27 08:13:27;;;;;;;5.05;2.78;;;12.40;98.00;;;;;;5030213;28;20037;-80
2021/10/27 08:15:54;;;;;;;6.10;2.75;;;12.40;97.80;;;;;;5030455;28;20030;-80
2021/10/27 08:18:19;;;;;;;10.13;3.00;;;12.50;97.80;;;;;;5029369;28;20021;-80
2021/10/27 08:20:46;;;;;;;3.60;2.60;;;12.60;97.90;;;;;;5029982;28;20044;-80
2021/10/27 08:23:14;;;;;;;3.78;2.53;;;12.60;97.90;;;;;;5030478;28;20525;-78
2021/10/27 08:25:43;;;;;;;3.90;2.90;;;12.60;97.70;;;;;;5029646;28;20387;-80
2021/10/27 08:28:13;;;;;;;4.60;2.65;;;12.70;97.50;;;;;;5029755;28;20029;-80
2021/10/27 08:31:31;;;;;;;5.18;2.90;;;12.70;97.30;;;;;;5029283;28;20033;-80
2021/10/27 08:36:00;;;;;;;5.80;3.55;;;12.80;97.20;;;;;;5029622;28;20090;-81
2021/10/27 08:38:26;;;;;;;5.95;2.88;;;12.80;97.30;;;;;;5030054;28;20390;-81
2021/10/27 08:40:52;;;;;;;4.82;2.47;;;12.80;97.60;;;;;;5029047;28;20439;-81
2021/10/27 08:43:18;;;;;;;4.60;2.67;;;12.90;97.30;;;;;;5030082;28;20406;-81
2021/10/27 08:45:44;;;;;;;4.55;2.70;;;13.00;97.20;;;;;;5030018;28;20033;-82
2021/10/27 08:48:11;;;;;;;3.38;2.20;;;13.00;97.10;;;;;;5028937;28;20034;-81
2021/10/27 08:50:38;;;;;;;4.85;2.75;;;13.00;97.20;;;;;;5029676;28;20409;-82
2021/10/27 08:53:04;;;;;;;2.95;2.15;;;13.10;97.00;;;;;;5029630;28;20029;-82
2021/10/27 08:55:31;;;;;;;2.60;2.15;;;13.10;97.00;;;;;;5028241;28;20033;-82
2021/10/27 08:57:57;;;;;;;5.18;1.80;;;13.10;97.10;;;;;;5028074;28;20527;-82
2021/10/27 09:00:30;;;;;;;7.13;2.25;;;13.20;97.10;;;;;;5029601;28;20474;-82
2021/10/27 09:03:09;;;;;;;3.45;1.85;;;13.20;96.80;;;;;;5029709;28;20026;-81
2021/10/27 09:05:58;;;;;;;5.45;2.60;;;13.30;96.60;;;;;;5027732;28;20041;-82
2021/10/27 09:34:21;;;;;;;4.30;2.30;;;13.40;96.90;;;;;;5029531;28;20056;-81
2021/10/27 09:36:56;;;;;;;2.88;2.47;;;13.40;96.90;;;;;;5029114;28;20040;-81
2021/10/27 09:42:19;;;;;;;3.35;2.55;;;13.50;96.90;;;;;;5029190;28;20033;-81
2021/10/27 09:47:36;;;;;;;7.05;2.53;;;13.60;96.70;;;;;;5029292;28;20044;-81
2021/10/27 10:04:03;;;;;;;5.65;2.90;;;14.10;96.10;;;;;;5028507;28;20044;-81
2021/10/27 10:06:30;;;;;;;5.28;2.47;;;14.30;95.70;;;;;;5028701;28;20159;-82
2021/10/27 10:08:56;;;;;;;3.72;2.13;;;14.40;95.80;;;;;;5028547;28;20022;-80
2021/10/27 10:11:24;;;;;;;4.20;2.65;;;14.40;95.80;;;;;;5029933;28;20076;-81
2021/10/27 10:14:10;;;;;;;5.82;2.00;;;14.40;95.50;;;;;;5032768;28;20030;-81
2021/10/27 10:16:43;;;;;;;7.57;1.95;;;14.60;95.70;;;;;;5030643;28;20075;-81
2021/10/27 10:19:12;;;;;;;3.00;2.00;;;14.70;95.50;;;;;;5030736;28;20037;-81
2021/10/27 10:21:41;;;;;;;3.33;2.22;;;14.70;95.20;;;;;;5047267;28;20041;-81
2021/10/27 10:24:21;;;;;;;2.20;1.67;;;14.80;95.30;;;;;;5032345;28;20034;-81
2021/10/27 10:26:52;;;;;;;2.85;1.60;;;14.90;95.00;;;;;;5032656;28;20051;-81
2021/10/27 10:29:37;;;;;;;4.85;1.73;;;15.00;94.90;;;;;;5030172;28;20371;-80
2021/10/27 10:32:25;;;;;;;2.60;1.90;;;15.10;95.30;;;;;;5030605;28;20025;-81
2021/10/27 10:34:56;;;;;;;3.50;2.03;;;15.10;94.90;;;;;;5032081;28;20378;-82
2021/10/27 10:37:36;;;;;;;3.22;1.70;;;15.20;94.70;;;;;;5032029;28;20030;-81
2021/10/27 10:40:34;;;;;;;3.03;1.95;;;15.20;95.00;;;;;;5031768;28;20060;-80
2021/10/27 10:45:47;;;;;;;2.88;1.80;;;15.30;95.10;;;;;;5051896;28;20036;-80
2021/10/27 10:57:14;;;;;;;2.80;1.75;;;15.50;94.20;;;;;;5046492;28;20054;-80
2021/10/27 11:00:17;;;;;;;4.03;1.70;;;15.60;94.70;;;;;;5031186;28;20029;-80
2021/10/27 11:23:00;;;;;;;2.22;1.52;;;16.30;93.90;;;;;;5027166;28;20121;-81
2021/10/27 11:25:40;;;;;;;2.25;1.30;;;16.30;93.40;;;;;;5031031;28;20030;-81
2021/10/27 11:39:44;;;;;;;4.00;1.45;;;16.30;93.30;;;;;;5030402;28;20504;-81
2021/10/27 11:42:33;;;;;;;4.22;1.10;;;16.40;93.10;;;;;;5030293;28;20031;-81
2021/10/27 11:45:10;;;;;;;2.10;1.23;;;16.50;93.20;;;;;;5029430;28;20032;-81
2021/10/27 11:47:45;;;;;;;1.80;1.00;;;16.50;93.10;;;;;;5030117;28;20045;-81
2021/10/27 11:50:13;;;;;;;3.42;1.30;;;16.50;93.30;;;;;;5031072;28;20025;-81
2021/10/27 11:52:40;;;;;;;1.23;0.85;;;16.40;93.40;;;;;;5029961;28;20096;-80
2021/10/27 11:55:14;;;;;;;3.78;1.13;;;16.50;93.30;;;;;;5030610;28;20041;-81
2021/10/27 11:57:41;;;;;;;3.05;1.30;;;16.50;93.30;;;;;;5029400;28;20482;-79
2021/10/27 12:00:37;;;;;;;2.80;1.17;;;16.50;93.00;;;;;;5029975;28;20207;-80
2021/10/27 12:03:11;;;;;;;2.08;1.02;;;16.40;93.30;;;;;;5028796;28;20427;-79
2021/10/27 12:05:55;;;;;;;2.40;0.90;;;16.40;93.20;;;;;;5029218;28;20034;-81
2021/10/27 12:14:00;;;;;;;2.38;1.13;;;16.60;92.90;;;;;;5030246;28;20051;-80
2021/10/27 12:19:25;;;;;;;3.35;1.00;;;16.40;93.00;;;;;;5029547;28;20047;-80
2021/10/27 12:21:53;;;;;;;1.95;0.95;;;16.40;93.20;;;;;;5029605;28;20065;-81
2021/10/27 12:24:24;;;;;;;1.52;0.88;;;16.40;93.30;;;;;;5030223;28;20025;-81
2021/10/27 12:29:31;;;;;;;2.78;1.00;;;16.60;93.10;;;;;;5029354;28;20065;-80
2021/10/27 12:32:12;;;;;;;2.90;1.50;;;16.60;92.90;;;;;;5029957;28;20485;-79
2021/10/27 12:34:49;;;;;;;3.13;0.88;;;16.70;93.00;;;;;;5030534;28;20029;-78
2021/10/27 12:37:22;;;;;;;5.35;1.30;;;16.60;92.50;;;;;;5049386;28;20500;-80
2021/10/27 12:39:48;;;;;;;2.92;1.05;;;16.70;92.70;;;;;;5049198;28;20116;-80
2021/10/27 12:42:14;;;;;;;3.33;0.80;;;16.70;92.60;;;;;;5049516;28;20162;-80
2021/10/27 12:44:52;;;;;;;2.28;0.90;;;16.70;92.60;;;;;;5048443;28;20068;-80
2021/10/27 12:47:26;;;;;;;3.30;1.20;;;16.80;92.30;;;;;;5050039;28;20025;-80
2021/10/27 12:50:10;;;;;;;2.47;0.70;;;16.90;92.50;;;;;;5029682;28;20033;-79
2021/10/27 12:52:45;;;;;;;1.58;0.70;;;16.90;92.00;;;;;;5029686;28;20026;-79
2021/10/27 12:55:24;;;;;;;1.42;0.90;;;16.90;92.30;;;;;;5029359;28;20430;-80
2021/10/27 12:58:15;;;;;;;2.15;1.10;;;17.00;92.50;;;;;;5029590;28;20076;-81
2021/10/27 13:00:56;;;;;;;3.45;1.10;;;17.10;92.40;;;;;;5030863;28;20085;-81
2021/10/27 13:08:57;;;;;;;2.15;1.85;;;17.00;92.50;;;;;;5029146;28;20160;-82
2021/10/27 13:14:19;;;;;;;5.65;0.95;;;17.00;92.50;;;;;;5029571;28;20040;-81
2021/10/27 13:17:05;;;;;;;2.15;1.13;;;16.90;92.60;;;;;;5029356;28;20112;-82
2021/10/27 13:22:28;;;;;;;2.97;1.20;;;17.00;92.70;;;;;;5029326;28;20068;-81
2021/10/27 13:30:30;;;;;;;2.75;1.20;;;17.00;92.50;;;;;;5029017;28;20064;-81
2021/10/27 13:32:57;;;;;;;2.05;1.27;;;16.90;92.60;;;;;;5029273;28;20056;-81
2021/10/27 13:35:24;;;;;;;2.35;1.38;;;16.80;92.70;;;;;;5028522;28;20033;-81
2021/10/27 13:37:51;;;;;;;2.45;1.23;;;16.80;92.70;;;;;;5028735;28;20075;-81
2021/10/27 13:40:18;;;;;;;4.47;1.42;;;16.80;92.80;;;;;;5028077;28;20069;-81
2021/10/27 13:42:59;;;;;;;1.80;1.15;;;16.80;92.90;;;;;;5029233;28;20049;-82
2021/10/27 13:48:38;;;;;;;2.70;1.33;;;16.70;92.80;;;;;;5032768;28;20036;-81
2021/10/27 14:05:59;;;;;;;2.95;0.95;;;16.50;93.40;;;;;;5031851;28;20040;-81
2021/10/27 14:07:50;;;;;;;1.70;1.20;;;16.50;93.20;;;;;;5032175;28;20048;-81
2021/10/27 14:10:29;;;;;;;2.15;1.40;;;16.50;93.40;;;;;;5032375;28;20493;-81
2021/10/27 14:13:06;;;;;;;3.83;1.67;;;16.50;93.30;;;;;;5032746;28;20043;-81
2021/10/27 14:18:25;;;;;;;3.38;1.25;;;16.40;93.50;;;;;;5032086;28;20037;-80
2021/10/27 14:22:19;;;;;;;2.28;1.10;;;16.40;93.40;;;;;;5032074;28;20131;-80
2021/10/27 14:58:59;;;;;;;2.25;1.00;;;16.00;94.10;;;;;;5031933;28;20044;-79
2021/10/27 15:15:26;;;;;;;1.52;0.80;;;16.00;94.00;;;;;;5010865;28;20030;-80
2021/10/27 15:21:26;;;;;;;2.90;1.27;;;15.90;94.20;;;;;;5011393;28;20072;-79
2021/10/27 15:36:20;;;;;;;3.58;1.73;;;15.60;94.70;;;;;;5011242;28;20114;-80
2021/10/27 15:41:58;;;;;;;2.97;1.50;;;15.60;94.70;;;;;;5010903;28;20115;-79
2021/10/27 15:44:31;;;;;;;3.20;1.50;;;15.50;94.80;;;;;;5011088;28;20030;-81
2021/10/27 15:52:25;;;;;;;2.53;1.83;;;15.50;95.10;;;;;;5010950;28;20127;-79
2021/10/27 15:54:51;;;;;;;3.00;1.60;;;15.50;95.00;;;;;;5011207;28;20079;-80
2021/10/27 15:57:17;;;;;;;3.85;1.80;;;15.50;95.00;;;;;;5010887;28;20030;-80
2021/10/27 15:59:44;;;;;;;2.63;1.75;;;15.40;95.00;;;;;;5009977;28;20030;-80
2021/10/27 16:02:11;;;;;;;2.92;1.98;;;15.40;95.10;;;;;;5009919;28;20157;-80
2021/10/27 16:04:38;;;;;;;2.63;1.80;;;15.40;95.10;;;;;;5025970;28;20494;-80
2021/10/27 16:07:06;;;;;;;2.00;1.67;;;15.30;95.10;;;;;;5010821;28;20026;-79
2021/10/27 16:09:43;;;;;;;2.83;1.65;;;15.30;95.20;;;;;;5008564;28;20631;-80
2021/10/27 16:12:09;;;;;;;2.63;1.45;;;15.20;95.30;;;;;;5009350;28;20406;-79
2021/10/27 16:14:36;;;;;;;2.40;1.85;;;15.20;95.30;;;;;;5025371;28;20032;-80
2021/10/27 16:17:02;;;;;;;2.20;1.35;;;15.20;95.50;;;;;;5010464;28;20026;-80
2021/10/27 16:19:28;;;;;;;5.63;1.52;;;15.20;95.50;;;;;;5009723;28;20032;-79
2021/10/27 16:21:53;;;;;;;2.20;1.60;;;15.10;95.60;;;;;;5010359;28;20485;-79
2021/10/27 16:24:19;;;;;;;2.03;1.58;;;15.10;95.50;;;;;;5010664;28;20033;-80
2021/10/27 16:26:46;;;;;;;4.47;1.60;;;15.00;95.50;;;;;;5010606;28;20029;-80
2021/10/27 16:29:11;;;;;;;2.85;1.48;;;15.00;95.50;;;;;;5009878;28;20030;-80
2021/10/27 16:31:37;;;;;;;2.55;1.60;;;15.00;95.60;;;;;;5008125;28;20052;-80
2021/10/27 16:34:03;;;;;;;3.03;1.65;;;15.00;95.60;;;;;;5025564;28;20471;-80
2021/10/27 16:36:29;;;;;;;4.03;1.92;;;15.00;95.70;;;;;;5009431;28;20026;-80
2021/10/27 16:38:55;;;;;;;2.33;1.85;;;15.00;95.60;;;;;;5010036;28;20036;-80
2021/10/27 16:41:21;;;;;;;3.83;1.63;;;15.00;95.60;;;;;;5009929;28;20074;-80
2021/10/27 16:43:46;;;;;;;4.10;2.28;;;15.00;95.60;;;;;;5010720;28;20035;-80
2021/10/27 16:46:12;;;;;;;3.30;2.05;;;14.90;95.50;;;;;;5012363;28;20033;-79
2021/10/27 16:48:38;;;;;;;3.70;1.75;;;14.90;95.50;;;;;;5030799;28;20033;-80
2021/10/27 16:51:04;;;;;;;4.38;2.20;;;14.90;95.60;;;;;;5029469;28;20022;-81
2021/10/27 16:53:30;;;;;;;4.40;2.13;;;14.90;95.60;;;;;;5029779;28;20033;-80